createdAt,value
2018-10-17T00:00:19.606Z,21.17
2018-10-17T00:02:48.792Z,21.37
2018-10-17T00:05:18.005Z,19.37
2018-10-17T00:07:47.465Z,19.63
2018-10-17T00:10:16.642Z,20.97
2018-10-17T00:12:45.847Z,20.00
2018-10-17T00:15:14.996Z,20.37
2018-10-17T00:17:44.135Z,21.27
2018-10-17T00:20:14.141Z,20.73
2018-10-17T00:22:44.494Z,21.77
2018-10-17T00:25:13.775Z,21.57
2018-10-17T00:27:43.471Z,20.57
2018-10-17T00:30:13.528Z,21.00
2018-10-17T00:32:43.332Z,21.80
2018-10-17T00:35:12.706Z,21.83
2018-10-17T00:37:41.988Z,20.83
2018-10-17T00:40:11.169Z,20.70
2018-10-17T00:42:40.273Z,19.90
2018-10-17T00:45:09.425Z,21.30
2018-10-17T00:47:38.545Z,19.80
2018-10-17T00:50:07.795Z,21.20
2018-10-17T00:52:36.897Z,20.13
2018-10-17T00:55:06.667Z,20.00
2018-10-17T00:57:35.764Z,19.83
2018-10-17T01:00:05.588Z,20.53
2018-10-17T01:02:34.744Z,21.00
2018-10-17T01:05:04.488Z,20.27
2018-10-17T01:07:33.670Z,21.70
2018-10-17T01:10:02.760Z,19.97
2018-10-17T01:12:32.508Z,18.87
2018-10-17T01:15:01.642Z,20.37
2018-10-17T01:17:31.340Z,18.73
2018-10-17T01:20:00.450Z,19.80
2018-10-17T01:22:30.269Z,19.10
2018-10-17T01:24:59.513Z,20.63
2018-10-17T01:27:28.712Z,19.73
2018-10-17T01:32:32.323Z,21.77
2018-10-17T01:35:01.634Z,21.07
2018-10-17T01:37:30.755Z,21.40
2018-10-17T01:39:59.804Z,21.17
2018-10-17T01:42:28.978Z,20.33
2018-10-17T01:44:58.082Z,20.70
2018-10-17T01:47:27.246Z,20.93
2018-10-17T01:49:56.368Z,20.30
2018-10-17T01:52:25.466Z,21.67
2018-10-17T01:54:54.654Z,21.70
2018-10-17T01:57:24.390Z,19.97
2018-10-17T01:59:53.539Z,19.53
2018-10-17T02:02:23.453Z,20.20
2018-10-17T02:04:52.767Z,21.97
2018-10-17T02:07:21.838Z,20.83
2018-10-17T02:09:50.980Z,22.77
2018-10-17T02:12:20.240Z,21.63
2018-10-17T02:14:49.307Z,20.63
2018-10-17T02:17:18.418Z,20.93
2018-10-17T02:19:47.575Z,20.17
2018-10-17T02:22:16.781Z,20.47
2018-10-17T02:24:46.552Z,23.30
2018-10-17T02:27:15.698Z,21.20
2018-10-17T02:29:45.832Z,21.97
2018-10-17T02:32:15.013Z,21.37
2018-10-17T02:34:49.768Z,19.90
2018-10-17T02:37:18.998Z,23.00
2018-10-17T02:39:48.075Z,21.37
2018-10-17T02:42:17.264Z,20.47
2018-10-17T02:44:46.447Z,21.90
2018-10-17T02:47:15.586Z,20.77
2018-10-17T02:49:44.644Z,21.47
2018-10-17T02:52:13.768Z,20.90
2018-10-17T02:54:43.090Z,20.60
2018-10-17T02:57:12.279Z,21.10
2018-10-17T02:59:41.415Z,19.70
2018-10-17T03:02:10.475Z,20.37
2018-10-17T03:04:46.352Z,19.40
2018-10-17T03:07:15.591Z,19.80
2018-10-17T03:09:45.301Z,21.30
2018-10-17T03:12:14.495Z,18.67
2018-10-17T03:14:43.574Z,20.40
2018-10-17T03:17:12.901Z,20.47
2018-10-17T03:19:41.954Z,20.67
2018-10-17T03:22:11.496Z,20.13
2018-10-17T03:24:40.584Z,21.03
2018-10-17T03:27:09.797Z,20.20
2018-10-17T03:29:38.986Z,21.10
2018-10-17T03:32:08.410Z,20.30
2018-10-17T03:34:37.510Z,20.17
2018-10-17T03:37:07.436Z,18.90
2018-10-17T03:39:36.388Z,21.10
2018-10-17T03:42:06.171Z,20.97
2018-10-17T03:44:35.290Z,21.77
2018-10-17T03:47:04.606Z,19.93
2018-10-17T03:49:33.917Z,20.50
2018-10-17T03:52:02.886Z,20.30
2018-10-17T03:54:32.012Z,19.97
2018-10-17T03:57:01.859Z,19.63
2018-10-17T03:59:31.062Z,22.20
2018-10-17T04:02:00.015Z,21.20
2018-10-17T04:04:29.156Z,20.93
2018-10-17T04:06:58.288Z,20.17
2018-10-17T04:09:28.461Z,19.27
2018-10-17T04:11:57.573Z,19.13
2018-10-17T04:14:26.646Z,20.27
2018-10-17T04:16:55.797Z,19.17
2018-10-17T04:19:24.863Z,20.20
2018-10-17T04:21:53.979Z,18.57
2018-10-17T04:24:23.599Z,19.53
2018-10-17T04:26:52.759Z,19.30
2018-10-17T04:29:22.384Z,20.20
2018-10-17T04:31:51.497Z,19.50
2018-10-17T04:34:20.637Z,19.90
2018-10-17T04:36:49.743Z,18.67
2018-10-17T04:39:19.355Z,19.70
2018-10-17T04:41:48.501Z,18.90
2018-10-17T04:44:17.574Z,20.10
2018-10-17T04:46:46.737Z,18.53
2018-10-17T04:49:15.885Z,19.07
2018-10-17T04:51:44.911Z,19.50
2018-10-17T04:54:15.338Z,19.03
2018-10-17T04:56:45.828Z,18.83
2018-10-17T04:59:14.940Z,19.80
2018-10-17T05:01:44.044Z,21.50
2018-10-17T05:04:13.239Z,21.40
2018-10-17T05:06:43.176Z,24.07
2018-10-17T05:09:12.248Z,26.53
2018-10-17T05:11:41.340Z,24.80
2018-10-17T05:14:11.912Z,25.70
2018-10-17T05:16:41.003Z,27.47
2018-10-17T05:19:10.127Z,24.70
2018-10-17T05:21:39.899Z,23.67
2018-10-17T05:24:09.592Z,26.03
2018-10-17T05:26:38.654Z,31.03
2018-10-17T05:29:07.803Z,32.20
2018-10-17T05:31:36.906Z,30.07
2018-10-17T05:34:06.016Z,30.23
2018-10-17T05:36:35.102Z,28.97
2018-10-17T05:39:05.340Z,28.70
2018-10-17T05:41:34.607Z,25.87
2018-10-17T05:44:03.939Z,24.17
2018-10-17T05:46:33.021Z,24.10
2018-10-17T05:49:02.278Z,25.30
2018-10-17T05:51:31.336Z,22.83
2018-10-17T05:54:00.534Z,21.73
2018-10-17T05:56:29.687Z,21.07
2018-10-17T05:58:58.798Z,24.17
2018-10-17T06:01:27.946Z,24.23
2018-10-17T06:03:57.114Z,23.50
2018-10-17T06:06:26.348Z,22.83
2018-10-17T06:08:55.459Z,22.50
2018-10-17T06:11:24.570Z,20.50
2018-10-17T06:13:53.741Z,21.87
2018-10-17T06:16:23.413Z,21.80
2018-10-17T06:18:52.465Z,21.63
2018-10-17T06:21:21.562Z,21.40
2018-10-17T06:23:50.659Z,21.03
2018-10-17T06:26:20.031Z,20.80
2018-10-17T06:28:49.099Z,21.13
2018-10-17T06:31:19.582Z,19.83
2018-10-17T06:33:48.905Z,20.47
2018-10-17T06:36:17.963Z,19.07
2018-10-17T06:38:47.071Z,18.30
2018-10-17T06:41:16.357Z,18.63
2018-10-17T06:43:45.601Z,20.50
2018-10-17T06:46:15.500Z,19.17
2018-10-17T06:48:45.167Z,19.03
2018-10-17T06:51:15.701Z,19.53
2018-10-17T06:53:44.900Z,17.80
2018-10-17T06:56:14.109Z,17.80
2018-10-17T06:58:43.266Z,19.23
2018-10-17T07:01:13.949Z,16.93
2018-10-17T07:03:43.735Z,18.67
2018-10-17T07:06:12.839Z,17.30
2018-10-17T07:08:42.025Z,19.90
2018-10-17T07:11:11.141Z,17.33
2018-10-17T07:13:40.935Z,22.33
2018-10-17T07:16:10.151Z,17.90
2018-10-17T07:18:39.271Z,20.30
2018-10-17T07:21:08.425Z,17.43
2018-10-17T07:23:38.361Z,17.40
2018-10-17T07:26:07.478Z,17.97
2018-10-17T07:28:36.656Z,19.50
2018-10-17T07:31:05.904Z,17.47
2018-10-17T07:33:35.054Z,17.40
2018-10-17T07:36:04.304Z,18.57
2018-10-17T07:38:33.572Z,18.03
2018-10-17T07:41:02.772Z,17.00
2018-10-17T07:43:31.869Z,18.43
2018-10-17T07:46:01.666Z,17.37
2018-10-17T07:48:30.756Z,16.90
2018-10-17T07:50:59.914Z,17.80
2018-10-17T07:53:29.198Z,17.83
2018-10-17T07:55:59.141Z,18.23
2018-10-17T07:58:28.195Z,18.20
2018-10-17T08:00:57.454Z,16.67
2018-10-17T08:03:26.644Z,18.33
2018-10-17T08:05:55.793Z,18.17
2018-10-17T08:08:24.844Z,49.30
2018-10-17T08:10:54.081Z,21.67
2018-10-17T08:13:23.204Z,20.27
2018-10-17T08:15:52.420Z,19.13
2018-10-17T08:18:21.593Z,19.47
2018-10-17T08:20:50.700Z,18.13
2018-10-17T08:23:19.811Z,18.33
2018-10-17T08:25:48.949Z,18.00
2018-10-17T08:28:18.166Z,18.00
2018-10-17T08:30:48.447Z,19.83
2018-10-17T08:33:17.579Z,17.53
2018-10-17T08:35:46.980Z,16.90
2018-10-17T08:38:16.012Z,16.93
2018-10-17T08:40:45.224Z,17.00
2018-10-17T08:43:15.120Z,15.70
2018-10-17T08:45:44.692Z,16.77
2018-10-17T08:48:15.589Z,14.37
2018-10-17T08:50:44.818Z,15.57
2018-10-17T08:53:15.269Z,16.07
2018-10-17T08:55:44.428Z,11.37
2018-10-17T08:58:14.036Z,13.93
2018-10-17T09:00:45.006Z,16.60
2018-10-17T09:03:15.791Z,14.63
2018-10-17T09:05:44.900Z,13.90
2018-10-17T09:08:15.328Z,12.70
2018-10-17T09:10:44.996Z,12.83
2018-10-17T09:13:14.282Z,12.47
2018-10-17T09:15:43.785Z,13.00
2018-10-17T09:18:13.762Z,12.33
2018-10-17T09:20:43.243Z,12.33
2018-10-17T09:23:12.192Z,11.17
2018-10-17T09:25:41.409Z,11.53
2018-10-17T09:28:11.204Z,10.70
2018-10-17T09:30:40.315Z,11.67
2018-10-17T09:33:09.340Z,10.27
2018-10-17T09:35:40.054Z,11.50
2018-10-17T09:38:09.103Z,9.77
2018-10-17T09:40:39.626Z,10.93
2018-10-17T09:43:08.835Z,12.87
2018-10-17T09:45:38.027Z,15.10
2018-10-17T09:48:07.348Z,18.97
2018-10-17T09:50:36.423Z,17.83
2018-10-17T09:53:06.156Z,18.10
2018-10-17T09:55:35.317Z,19.70
2018-10-17T09:58:05.442Z,16.93
2018-10-17T10:00:39.742Z,18.30
2018-10-17T10:03:08.939Z,16.53
2018-10-17T10:05:38.157Z,16.20
2018-10-17T10:08:07.402Z,14.87
2018-10-17T10:10:36.516Z,15.37
2018-10-17T10:13:06.201Z,14.83
2018-10-17T10:15:35.325Z,15.00
2018-10-17T10:18:04.485Z,14.00
2018-10-17T10:20:33.721Z,13.57
2018-10-17T10:23:03.310Z,12.70
2018-10-17T10:25:32.380Z,12.70
2018-10-17T10:28:01.949Z,11.30
2018-10-17T10:30:31.423Z,20.77
2018-10-17T10:33:00.700Z,12.20
2018-10-17T10:35:30.136Z,10.80
2018-10-17T10:37:59.442Z,12.20
2018-10-17T10:40:29.951Z,11.37
2018-10-17T10:42:59.080Z,9.30
2018-10-17T10:45:28.353Z,8.13
2018-10-17T10:47:57.477Z,8.23
2018-10-17T10:50:26.540Z,8.30
2018-10-17T10:52:55.826Z,8.03
2018-10-17T10:55:26.022Z,8.27
2018-10-17T10:57:55.272Z,8.97
2018-10-17T11:00:24.934Z,10.20
2018-10-17T11:02:54.682Z,8.77
2018-10-17T11:05:24.065Z,9.43
2018-10-17T11:07:52.999Z,8.20
2018-10-17T11:10:22.245Z,8.23
2018-10-17T11:12:51.398Z,9.60
2018-10-17T11:15:21.011Z,8.60
2018-10-17T11:17:50.020Z,8.20
2018-10-17T11:20:20.815Z,8.83
2018-10-17T11:22:50.014Z,9.07
2018-10-17T11:25:19.762Z,8.80
2018-10-17T11:27:49.695Z,8.20
2018-10-17T11:30:19.589Z,9.40
2018-10-17T11:32:48.812Z,8.60
2018-10-17T11:35:18.097Z,8.43
2018-10-17T11:37:47.589Z,9.53
2018-10-17T11:40:17.459Z,8.63
2018-10-17T11:42:47.174Z,8.90
2018-10-17T11:45:16.446Z,8.33
2018-10-17T11:47:45.608Z,8.93
2018-10-17T11:50:16.398Z,8.50
2018-10-17T11:52:46.195Z,9.37
2018-10-17T11:55:15.789Z,9.13
2018-10-17T11:57:44.883Z,7.70
2018-10-17T12:00:14.766Z,8.20
2018-10-17T12:02:44.042Z,9.97
2018-10-17T12:05:15.448Z,7.67
2018-10-17T12:07:44.692Z,8.90
2018-10-17T12:10:13.877Z,8.00
2018-10-17T12:12:44.490Z,8.23
2018-10-17T12:15:15.788Z,8.10
2018-10-17T12:17:44.912Z,8.43
2018-10-17T12:20:15.827Z,9.10
2018-10-17T12:22:45.536Z,7.63
2018-10-17T12:25:15.257Z,9.33
2018-10-17T12:27:44.757Z,7.70
2018-10-17T12:30:14.920Z,7.60
2018-10-17T12:32:43.987Z,7.33
2018-10-17T12:35:13.345Z,7.67
2018-10-17T12:37:42.514Z,7.50
2018-10-17T12:40:12.148Z,7.80
2018-10-17T12:42:41.221Z,8.37
2018-10-17T12:45:11.854Z,7.80
2018-10-17T12:47:41.035Z,8.50
2018-10-17T12:50:10.509Z,7.97
2018-10-17T12:52:40.247Z,7.40
2018-10-17T12:55:09.930Z,7.70
2018-10-17T12:57:39.085Z,8.47
2018-10-17T13:00:10.543Z,7.30
2018-10-17T13:02:40.071Z,7.67
2018-10-17T13:05:10.348Z,7.87
2018-10-17T13:07:39.695Z,8.10
2018-10-17T13:10:10.115Z,8.30
2018-10-17T13:12:39.305Z,7.47
2018-10-17T13:15:12.331Z,7.27
2018-10-17T13:17:42.152Z,7.77
2018-10-17T13:20:11.850Z,8.50
2018-10-17T13:22:41.126Z,7.10
2018-10-17T13:25:10.365Z,8.10
2018-10-17T13:27:39.486Z,7.10
2018-10-17T13:30:09.122Z,8.63
2018-10-17T13:32:38.541Z,9.27
2018-10-17T13:35:07.997Z,9.07
2018-10-17T13:37:37.124Z,9.00
2018-10-17T13:40:06.585Z,8.00
2018-10-17T13:42:36.352Z,9.10
2018-10-17T13:45:07.468Z,8.80
2018-10-17T13:47:37.808Z,9.50
2018-10-17T13:50:07.631Z,8.10
2018-10-17T13:52:36.830Z,10.20
2018-10-17T13:55:06.987Z,8.23
2018-10-17T13:57:37.046Z,7.30
2018-10-17T14:00:07.827Z,7.40
2018-10-17T14:02:38.243Z,8.13
2018-10-17T14:05:08.303Z,6.63
2018-10-17T14:07:37.456Z,8.10
2018-10-17T14:10:07.325Z,6.53
2018-10-17T14:12:37.011Z,7.70
2018-10-17T14:15:06.539Z,8.37
2018-10-17T14:17:35.773Z,9.10
2018-10-17T14:20:05.121Z,8.20
2018-10-17T14:22:34.206Z,8.60
2018-10-17T14:25:03.499Z,9.10
2018-10-17T14:27:32.598Z,7.80
2018-10-17T14:30:02.141Z,8.90
2018-10-17T14:32:31.183Z,8.97
2018-10-17T14:35:00.372Z,9.47
2018-10-17T14:37:30.699Z,9.50
2018-10-17T14:40:00.096Z,10.00
2018-10-17T14:42:29.404Z,9.10
2018-10-17T14:44:58.588Z,9.10
2018-10-17T14:47:27.793Z,10.03
2018-10-17T14:49:57.738Z,10.13
2018-10-17T14:52:27.474Z,9.47
2018-10-17T14:54:56.841Z,9.80
2018-10-17T14:57:25.952Z,9.47
2018-10-17T14:59:55.055Z,10.83
2018-10-17T15:02:24.211Z,11.30
2018-10-17T15:04:53.995Z,10.67
2018-10-17T15:07:23.098Z,12.23
2018-10-17T15:09:52.869Z,11.17
2018-10-17T15:12:22.630Z,11.77
2018-10-17T15:14:52.424Z,10.87
2018-10-17T15:17:21.621Z,13.63
2018-10-17T15:19:51.539Z,11.50
2018-10-17T15:22:21.555Z,10.93
2018-10-17T15:24:50.915Z,10.83
2018-10-17T15:27:20.136Z,11.73
2018-10-17T15:29:50.106Z,13.47
2018-10-17T15:32:19.208Z,13.90
2018-10-17T15:34:48.356Z,13.67
2018-10-17T15:37:17.523Z,13.77
2018-10-17T15:39:46.741Z,14.17
2018-10-17T15:42:15.917Z,12.80
2018-10-17T15:44:45.180Z,13.83
2018-10-17T15:47:14.594Z,14.47
2018-10-17T15:49:43.879Z,12.30
2018-10-17T15:52:13.363Z,14.97
2018-10-17T15:54:42.631Z,14.80
2018-10-17T15:57:12.138Z,14.03
2018-10-17T15:59:41.319Z,14.23
2018-10-17T16:02:11.109Z,15.03
2018-10-17T16:04:43.573Z,13.27
2018-10-17T16:07:13.604Z,13.60
2018-10-17T16:09:43.014Z,12.30
2018-10-17T16:12:13.403Z,10.97
2018-10-17T16:14:44.158Z,12.70
2018-10-17T16:17:15.434Z,12.97
2018-10-17T16:19:44.643Z,14.37
2018-10-17T16:22:14.598Z,14.27
2018-10-17T16:24:43.880Z,14.63
2018-10-17T16:27:13.032Z,16.13
2018-10-17T16:29:42.775Z,12.40
2018-10-17T16:32:12.783Z,14.00
2018-10-17T16:34:41.884Z,14.97
2018-10-17T16:37:11.627Z,15.47
2018-10-17T16:39:40.864Z,14.03
2018-10-17T16:42:10.596Z,15.23
2018-10-17T16:44:39.668Z,13.23
2018-10-17T16:47:09.135Z,14.20
2018-10-17T16:49:39.050Z,13.23
2018-10-17T16:52:08.206Z,14.83
2018-10-17T16:54:38.193Z,15.27
2018-10-17T16:57:08.923Z,14.63
2018-10-17T16:59:38.457Z,14.60
2018-10-17T17:02:08.043Z,15.10
2018-10-17T17:04:37.966Z,14.27
2018-10-17T17:07:07.395Z,14.37
2018-10-17T17:09:43.312Z,13.90
2018-10-17T17:12:13.717Z,14.30
2018-10-17T17:14:43.004Z,13.73
2018-10-17T17:17:12.489Z,13.97
2018-10-17T17:19:41.731Z,14.03
2018-10-17T17:22:11.141Z,13.63
2018-10-17T17:24:40.434Z,14.67
2018-10-17T17:27:10.335Z,15.23
2018-10-17T17:29:39.905Z,14.50
2018-10-17T17:32:09.061Z,17.57
2018-10-17T17:34:38.395Z,20.07
2018-10-17T17:37:08.356Z,17.77
2018-10-17T17:39:37.647Z,17.47
2018-10-17T17:42:07.156Z,16.60
2018-10-17T17:44:36.347Z,18.57
2018-10-17T17:47:06.302Z,18.50
2018-10-17T17:49:36.380Z,19.60
2018-10-17T17:52:05.838Z,19.93
2018-10-17T17:54:35.054Z,19.13
2018-10-17T17:57:05.583Z,19.30
2018-10-17T17:59:35.630Z,23.67
2018-10-17T18:02:05.733Z,20.70
2018-10-17T18:04:35.773Z,21.77
2018-10-17T18:07:05.125Z,21.47
2018-10-17T18:09:34.429Z,22.20
2018-10-17T18:12:03.586Z,25.03
2018-10-17T18:14:32.835Z,24.80
2018-10-17T18:17:02.120Z,24.20
2018-10-17T18:19:31.857Z,22.67
2018-10-17T18:22:01.114Z,24.03
2018-10-17T18:24:30.334Z,23.17
2018-10-17T18:26:59.540Z,24.37
2018-10-17T18:29:28.855Z,25.37
2018-10-17T18:31:58.224Z,26.50
2018-10-17T18:34:27.479Z,26.10
2018-10-17T18:36:57.244Z,25.27
2018-10-17T18:39:27.178Z,25.83
2018-10-17T18:41:58.634Z,24.90
2018-10-17T18:44:28.650Z,21.40
2018-10-17T18:46:59.825Z,18.60
2018-10-17T18:49:29.115Z,16.70
2018-10-17T18:51:58.496Z,18.70
2018-10-17T18:54:30.239Z,18.43
2018-10-17T18:57:16.594Z,20.07
2018-10-17T18:59:57.605Z,21.00
2018-10-17T19:02:27.955Z,21.97
2018-10-17T19:04:57.391Z,23.50
2018-10-17T19:07:26.914Z,21.67
2018-10-17T19:09:56.966Z,22.77
2018-10-17T19:12:26.460Z,23.73
2018-10-17T19:14:55.684Z,25.17
2018-10-17T19:17:25.174Z,24.70
2018-10-17T19:19:54.916Z,24.80
2018-10-17T19:22:25.569Z,24.50
2018-10-17T19:24:55.187Z,26.43
2018-10-17T19:27:35.808Z,39.30
2018-10-17T19:30:06.302Z,28.67
2018-10-17T19:32:44.181Z,29.00
2018-10-17T19:35:14.729Z,29.40
2018-10-17T19:37:44.631Z,28.70
2018-10-17T19:40:13.883Z,28.27
2018-10-17T19:42:43.348Z,29.10
2018-10-17T19:45:12.922Z,29.17
2018-10-17T19:47:42.373Z,29.00
2018-10-17T19:50:11.680Z,30.67
2018-10-17T19:52:40.947Z,30.70
2018-10-17T19:55:11.958Z,28.47
2018-10-17T19:57:41.961Z,32.47
2018-10-17T20:00:13.960Z,31.13
2018-10-17T20:02:43.985Z,33.00
2018-10-17T20:05:14.530Z,36.17
2018-10-17T20:07:45.098Z,36.47
2018-10-17T20:13:06.103Z,33.37
2018-10-17T20:15:35.493Z,34.10
2018-10-17T20:18:04.937Z,33.43
2018-10-17T20:20:35.036Z,33.87
2018-10-17T20:23:04.550Z,34.60
2018-10-17T20:25:34.136Z,33.87
2018-10-17T20:28:04.842Z,35.47
2018-10-17T20:30:34.112Z,34.03
2018-10-17T20:33:04.461Z,36.07
2018-10-17T20:35:33.824Z,37.47
2018-10-17T20:38:03.809Z,37.67
2018-10-17T20:40:34.209Z,35.10
2018-10-17T20:43:04.010Z,36.10
2018-10-17T20:45:33.263Z,38.00
2018-10-17T20:48:02.536Z,35.60
2018-10-17T20:50:31.906Z,37.93
2018-10-17T20:53:01.347Z,37.80
2018-10-17T20:55:30.585Z,39.03
2018-10-17T20:58:00.061Z,38.83
2018-10-17T21:00:29.459Z,38.40
2018-10-17T21:02:58.608Z,37.60
2018-10-17T21:05:27.789Z,38.10
2018-10-17T21:07:57.205Z,38.10
2018-10-17T21:10:26.372Z,36.47
2018-10-17T21:12:55.570Z,38.57
2018-10-17T21:15:25.544Z,38.77
2018-10-17T21:17:54.741Z,38.77
2018-10-17T21:20:24.447Z,39.60
2018-10-17T21:22:54.103Z,36.60
2018-10-17T21:25:23.232Z,35.10
2018-10-17T21:27:52.702Z,35.13
2018-10-17T21:30:22.459Z,37.63
2018-10-17T21:32:53.105Z,38.70
2018-10-17T21:35:22.500Z,40.30
2018-10-17T21:37:51.815Z,43.70
2018-10-17T21:40:21.880Z,41.80
2018-10-17T21:42:52.348Z,44.50
2018-10-17T21:45:21.703Z,46.37
2018-10-17T21:47:51.135Z,44.37
2018-10-17T21:50:20.452Z,45.40
2018-10-17T21:52:49.715Z,47.23
2018-10-17T21:55:18.976Z,49.37
2018-10-17T21:57:48.100Z,48.47
2018-10-17T22:00:17.299Z,48.90
2018-10-17T22:02:46.480Z,50.03
2018-10-17T22:05:15.700Z,46.17
2018-10-17T22:07:44.852Z,48.40
2018-10-17T22:10:14.534Z,48.30
2018-10-17T22:12:44.144Z,50.40
2018-10-17T22:15:14.159Z,50.63
2018-10-17T22:17:43.408Z,51.37
2018-10-17T22:20:12.678Z,52.40
2018-10-17T22:22:41.743Z,51.60
2018-10-17T22:25:10.880Z,51.93
2018-10-17T22:27:40.260Z,51.67
2018-10-17T22:30:09.584Z,51.80
2018-10-17T22:32:38.629Z,51.73
2018-10-17T22:35:07.849Z,49.73
2018-10-17T22:37:36.968Z,52.50
2018-10-17T22:40:06.138Z,49.40
2018-10-17T22:42:35.402Z,49.43
2018-10-17T22:45:04.711Z,52.30
2018-10-17T22:47:34.376Z,50.87
2018-10-17T22:50:04.086Z,50.00
2018-10-17T22:52:33.936Z,52.40
2018-10-17T22:55:03.181Z,57.97
2018-10-17T22:57:32.282Z,51.57
2018-10-17T23:00:01.567Z,48.50
2018-10-17T23:02:30.780Z,47.57
2018-10-17T23:04:59.889Z,49.27
2018-10-17T23:07:29.124Z,50.30
2018-10-17T23:09:58.307Z,52.20
2018-10-17T23:12:27.412Z,54.43
2018-10-17T23:14:56.695Z,52.53
2018-10-17T23:17:25.837Z,50.83
2018-10-17T23:19:55.064Z,54.30
2018-10-17T23:22:24.173Z,49.63
2018-10-17T23:24:53.340Z,46.30
2018-10-17T23:27:22.446Z,45.20
2018-10-17T23:29:52.232Z,45.90
2018-10-17T23:32:21.368Z,47.93
2018-10-17T23:34:50.498Z,51.10
2018-10-17T23:37:19.615Z,53.27
2018-10-17T23:39:48.827Z,53.47
2018-10-17T23:42:17.966Z,57.10
2018-10-17T23:44:47.123Z,54.73
2018-10-17T23:47:16.283Z,58.33
2018-10-17T23:49:45.407Z,56.20
2018-10-17T23:52:14.573Z,57.27
2018-10-17T23:54:44.039Z,56.27
2018-10-17T23:57:13.132Z,54.27
2018-10-17T23:59:42.300Z,54.57
